Aviation Digital Data Service (ADDS)

Output produced by METARs form (0412 UTC 24 May 2017)
found at http://aviationweather.gov/adds/metars/
 
KGFL 232333Z 2400/2424 VRB04KT P6SM SCT200 
     TEMPO 2408/2412 3SM BR 
     FM241200 VRB04KT P6SM SCT150 
     FM241500 08006KT P6SM SCT150 AMD NOT SKED